VE24 weather

Sookerating Airport
Assam, India

Public forecast

Using degrees Celsius for public forecast. Weather courtesy of forecast.io.

Closest aviation weather report (METAR) to Sookerating Airport

Closest report is Dibrugarh Airport, 29.8 nm (55.1 km) W. Retrieved 2020/03/31 07:00 UTC (7 minutes ago):

VEMN 310700Z 02005KT 5000 HZ FEW100 30/15 Q1010 NOSIG

Closest aviation forecast (TAF) to Sookerating Airport

Forecast is more than 12 hours old.

Closest forecast is Along Airport, 55.3 nm (102.5 km) NW. Retrieved 2019/09/10 06:30 UTC (7 months ago):

TAF VEAN 100330Z 1006/1018 09008KT 6000 SCT020 SCT025 BKN090 TEMPO 1014/1018 3000 TSRA SCT025 FEW030CB BKN090